sensor_id;sensor_type;location;lat;lon;timestamp;temperature;humidity
78571;SHT31;67861;51.966;5.672;2023-03-11T00:01:30;4.6;64.1
78571;SHT31;67861;51.966;5.672;2023-03-11T00:04:00;4.6;64.9
78571;SHT31;67861;51.966;5.672;2023-03-11T00:06:29;4.6;63.9
78571;SHT31;67861;51.966;5.672;2023-03-11T00:08:59;4.6;64.1
78571;SHT31;67861;51.966;5.672;2023-03-11T00:11:31;4.6;63.4
78571;SHT31;67861;51.966;5.672;2023-03-11T00:14:01;4.6;63.9
78571;SHT31;67861;51.966;5.672;2023-03-11T00:16:31;4.6;63.0
78571;SHT31;67861;51.966;5.672;2023-03-11T00:19:00;4.6;61.9
78571;SHT31;67861;51.966;5.672;2023-03-11T00:21:30;4.6;62.7
78571;SHT31;67861;51.966;5.672;2023-03-11T00:24:01;4.6;62.6
78571;SHT31;67861;51.966;5.672;2023-03-11T00:26:31;4.6;62.4
78571;SHT31;67861;51.966;5.672;2023-03-11T00:29:01;4.6;62.0
78571;SHT31;67861;51.966;5.672;2023-03-11T00:31:34;4.6;61.3
78571;SHT31;67861;51.966;5.672;2023-03-11T00:34:04;4.6;62.3
78571;SHT31;67861;51.966;5.672;2023-03-11T00:36:34;4.5;62.3
78571;SHT31;67861;51.966;5.672;2023-03-11T00:39:04;4.5;62.3
78571;SHT31;67861;51.966;5.672;2023-03-11T00:41:35;4.5;61.6
78571;SHT31;67861;51.966;5.672;2023-03-11T00:44:05;4.5;62.9
78571;SHT31;67861;51.966;5.672;2023-03-11T00:46:35;4.5;61.3
78571;SHT31;67861;51.966;5.672;2023-03-11T00:49:07;4.5;62.5
78571;SHT31;67861;51.966;5.672;2023-03-11T00:51:38;4.5;62.6
78571;SHT31;67861;51.966;5.672;2023-03-11T00:54:07;4.5;61.0
78571;SHT31;67861;51.966;5.672;2023-03-11T00:56:38;4.5;62.2
78571;SHT31;67861;51.966;5.672;2023-03-11T00:59:08;4.5;61.2
78571;SHT31;67861;51.966;5.672;2023-03-11T01:01:38;4.5;61.3
78571;SHT31;67861;51.966;5.672;2023-03-11T01:04:08;4.5;60.7
78571;SHT31;67861;51.966;5.672;2023-03-11T01:06:40;4.4;62.2
78571;SHT31;67861;51.966;5.672;2023-03-11T01:09:12;4.4;61.2
78571;SHT31;67861;51.966;5.672;2023-03-11T01:11:44;4.4;60.6
78571;SHT31;67861;51.966;5.672;2023-03-11T01:14:14;4.4;61.5
78571;SHT31;67861;51.966;5.672;2023-03-11T01:16:44;4.4;61.0
78571;SHT31;67861;51.966;5.672;2023-03-11T01:19:14;4.4;59.9
78571;SHT31;67861;51.966;5.672;2023-03-11T01:21:46;4.4;60.9
78571;SHT31;67861;51.966;5.672;2023-03-11T01:24:15;4.3;61.0
78571;SHT31;67861;51.966;5.672;2023-03-11T01:26:45;4.3;61.1
78571;SHT31;67861;51.966;5.672;2023-03-11T01:29:15;4.3;60.6
78571;SHT31;67861;51.966;5.672;2023-03-11T01:31:44;4.3;61.2
78571;SHT31;67861;51.966;5.672;2023-03-11T01:34:14;4.3;60.8
78571;SHT31;67861;51.966;5.672;2023-03-11T01:36:44;4.3;61.5
78571;SHT31;67861;51.966;5.672;2023-03-11T01:39:15;4.3;60.7
78571;SHT31;67861;51.966;5.672;2023-03-11T01:41:45;4.3;61.7
78571;SHT31;67861;51.966;5.672;2023-03-11T01:44:15;4.3;61.5
78571;SHT31;67861;51.966;5.672;2023-03-11T01:48:55;4.3;61.1
78571;SHT31;67861;51.966;5.672;2023-03-11T01:51:28;4.4;61.3
78571;SHT31;67861;51.966;5.672;2023-03-11T01:54:04;4.4;59.7
78571;SHT31;67861;51.966;5.672;2023-03-11T01:56:38;4.4;61.2
78571;SHT31;67861;51.966;5.672;2023-03-11T01:59:11;4.4;61.2
78571;SHT31;67861;51.966;5.672;2023-03-11T02:01:49;4.4;60.4
78571;SHT31;67861;51.966;5.672;2023-03-11T02:04:21;4.4;61.2
78571;SHT31;67861;51.966;5.672;2023-03-11T02:06:53;4.5;61.4
78571;SHT31;67861;51.966;5.672;2023-03-11T02:09:27;4.5;60.9
78571;SHT31;67861;51.966;5.672;2023-03-11T02:11:57;4.5;61.1
78571;SHT31;67861;51.966;5.672;2023-03-11T02:14:29;4.5;60.9
78571;SHT31;67861;51.966;5.672;2023-03-11T02:17:01;4.5;60.4
78571;SHT31;67861;51.966;5.672;2023-03-11T02:19:40;4.6;60.2
78571;SHT31;67861;51.966;5.672;2023-03-11T02:22:15;4.6;61.3
78571;SHT31;67861;51.966;5.672;2023-03-11T02:24:53;4.6;60.3
78571;SHT31;67861;51.966;5.672;2023-03-11T02:27:26;4.6;61.0
78571;SHT31;67861;51.966;5.672;2023-03-11T02:29:59;4.6;60.7
78571;SHT31;67861;51.966;5.672;2023-03-11T02:32:29;4.7;60.8
78571;SHT31;67861;51.966;5.672;2023-03-11T02:34:59;4.7;59.6
78571;SHT31;67861;51.966;5.672;2023-03-11T02:37:28;4.7;59.6
78571;SHT31;67861;51.966;5.672;2023-03-11T02:40:34;4.7;60.2
78571;SHT31;67861;51.966;5.672;2023-03-11T02:43:07;4.7;59.5
78571;SHT31;67861;51.966;5.672;2023-03-11T02:45:41;4.7;58.5
78571;SHT31;67861;51.966;5.672;2023-03-11T02:48:13;4.8;60.1
78571;SHT31;67861;51.966;5.672;2023-03-11T02:50:45;4.8;59.7
78571;SHT31;67861;51.966;5.672;2023-03-11T02:53:16;4.8;59.4
78571;SHT31;67861;51.966;5.672;2023-03-11T02:55:48;4.8;59.7
78571;SHT31;67861;51.966;5.672;2023-03-11T02:58:18;4.8;60.3
78571;SHT31;67861;51.966;5.672;2023-03-11T03:00:47;4.8;59.0
78571;SHT31;67861;51.966;5.672;2023-03-11T03:03:17;4.9;59.8
78571;SHT31;67861;51.966;5.672;2023-03-11T03:05:47;4.9;60.2
78571;SHT31;67861;51.966;5.672;2023-03-11T03:08:17;4.9;59.8
78571;SHT31;67861;51.966;5.672;2023-03-11T03:10:47;4.9;58.7
78571;SHT31;67861;51.966;5.672;2023-03-11T03:13:22;4.9;59.5
78571;SHT31;67861;51.966;5.672;2023-03-11T03:15:52;4.9;60.0
78571;SHT31;67861;51.966;5.672;2023-03-11T03:18:21;4.9;59.8
78571;SHT31;67861;51.966;5.672;2023-03-11T03:20:51;4.9;58.5
78571;SHT31;67861;51.966;5.672;2023-03-11T03:23:22;4.9;57.5
78571;SHT31;67861;51.966;5.672;2023-03-11T03:25:56;4.9;58.7
78571;SHT31;67861;51.966;5.672;2023-03-11T03:28:29;4.9;58.0
78571;SHT31;67861;51.966;5.672;2023-03-11T03:31:04;4.9;57.4
78571;SHT31;67861;51.966;5.672;2023-03-11T03:33:34;4.8;58.9
78571;SHT31;67861;51.966;5.672;2023-03-11T03:36:08;4.8;59.2
78571;SHT31;67861;51.966;5.672;2023-03-11T03:38:39;4.8;57.8
78571;SHT31;67861;51.966;5.672;2023-03-11T03:41:08;4.8;58.3
78571;SHT31;67861;51.966;5.672;2023-03-11T03:43:38;4.7;58.3
78571;SHT31;67861;51.966;5.672;2023-03-11T03:46:08;4.7;58.6
78571;SHT31;67861;51.966;5.672;2023-03-11T03:48:37;4.7;58.1
78571;SHT31;67861;51.966;5.672;2023-03-11T03:51:09;4.7;57.8
78571;SHT31;67861;51.966;5.672;2023-03-11T03:53:40;4.6;58.0
78571;SHT31;67861;51.966;5.672;2023-03-11T03:56:12;4.6;57.5
78571;SHT31;67861;51.966;5.672;2023-03-11T03:58:42;4.6;57.1
78571;SHT31;67861;51.966;5.672;2023-03-11T04:01:12;4.6;57.7
78571;SHT31;67861;51.966;5.672;2023-03-11T04:03:42;4.5;57.9
78571;SHT31;67861;51.966;5.672;2023-03-11T04:06:15;4.5;57.8
78571;SHT31;67861;51.966;5.672;2023-03-11T04:08:46;4.5;57.1
78571;SHT31;67861;51.966;5.672;2023-03-11T04:11:18;4.5;58.6
78571;SHT31;67861;51.966;5.672;2023-03-11T04:13:48;4.4;57.6
78571;SHT31;67861;51.966;5.672;2023-03-11T04:16:19;4.4;57.8
78571;SHT31;67861;51.966;5.672;2023-03-11T04:18:50;4.4;57.7
78571;SHT31;67861;51.966;5.672;2023-03-11T04:21:20;4.4;57.2
78571;SHT31;67861;51.966;5.672;2023-03-11T04:23:53;4.3;57.3
78571;SHT31;67861;51.966;5.672;2023-03-11T04:26:24;4.3;56.6
78571;SHT31;67861;51.966;5.672;2023-03-11T04:28:55;4.3;57.2
78571;SHT31;67861;51.966;5.672;2023-03-11T04:31:27;4.3;57.9
78571;SHT31;67861;51.966;5.672;2023-03-11T04:33:57;4.3;57.5
78571;SHT31;67861;51.966;5.672;2023-03-11T04:36:27;4.3;57.8
78571;SHT31;67861;51.966;5.672;2023-03-11T04:38:57;4.3;58.2
78571;SHT31;67861;51.966;5.672;2023-03-11T04:41:26;4.3;57.5
78571;SHT31;67861;51.966;5.672;2023-03-11T04:43:58;4.3;57.7
78571;SHT31;67861;51.966;5.672;2023-03-11T04:46:30;4.3;57.8
78571;SHT31;67861;51.966;5.672;2023-03-11T04:49:00;4.3;56.8
78571;SHT31;67861;51.966;5.672;2023-03-11T04:51:32;4.3;57.5
78571;SHT31;67861;51.966;5.672;2023-03-11T04:54:02;4.2;57.4
78571;SHT31;67861;51.966;5.672;2023-03-11T04:56:31;4.2;57.8
78571;SHT31;67861;51.966;5.672;2023-03-11T04:59:01;4.2;57.5
78571;SHT31;67861;51.966;5.672;2023-03-11T05:01:31;4.2;57.5
78571;SHT31;67861;51.966;5.672;2023-03-11T05:04:01;4.2;57.6
78571;SHT31;67861;51.966;5.672;2023-03-11T05:06:30;4.2;57.6
78571;SHT31;67861;51.966;5.672;2023-03-11T05:09:03;4.2;58.6
78571;SHT31;67861;51.966;5.672;2023-03-11T05:11:33;4.2;58.2
78571;SHT31;67861;51.966;5.672;2023-03-11T05:14:13;4.2;57.7
78571;SHT31;67861;51.966;5.672;2023-03-11T05:16:42;4.1;58.5
78571;SHT31;67861;51.966;5.672;2023-03-11T05:19:12;4.1;58.3
78571;SHT31;67861;51.966;5.672;2023-03-11T05:22:02;4.1;58.5
78571;SHT31;67861;51.966;5.672;2023-03-11T05:24:32;4.1;58.8
78571;SHT31;67861;51.966;5.672;2023-03-11T05:27:03;4.1;58.5
78571;SHT31;67861;51.966;5.672;2023-03-11T05:29:35;4.1;58.5
78571;SHT31;67861;51.966;5.672;2023-03-11T05:32:08;4.1;58.4
78571;SHT31;67861;51.966;5.672;2023-03-11T05:34:38;4.1;58.6
78571;SHT31;67861;51.966;5.672;2023-03-11T05:37:08;4.1;58.6
78571;SHT31;67861;51.966;5.672;2023-03-11T05:39:38;4.1;58.5
78571;SHT31;67861;51.966;5.672;2023-03-11T05:42:07;4.0;58.7
78571;SHT31;67861;51.966;5.672;2023-03-11T05:44:38;4.0;58.8
78571;SHT31;67861;51.966;5.672;2023-03-11T05:47:08;4.0;58.7
78571;SHT31;67861;51.966;5.672;2023-03-11T05:49:38;4.0;58.5
78571;SHT31;67861;51.966;5.672;2023-03-11T05:52:07;3.9;58.7
78571;SHT31;67861;51.966;5.672;2023-03-11T05:54:39;3.9;58.7
78571;SHT31;67861;51.966;5.672;2023-03-11T05:57:09;3.9;58.7
78571;SHT31;67861;51.966;5.672;2023-03-11T05:59:39;3.9;58.8
78571;SHT31;67861;51.966;5.672;2023-03-11T06:02:08;3.8;58.6
78571;SHT31;67861;51.966;5.672;2023-03-11T06:04:38;3.8;58.6
78571;SHT31;67861;51.966;5.672;2023-03-11T06:07:08;3.8;58.3
78571;SHT31;67861;51.966;5.672;2023-03-11T06:09:38;3.8;59.1
78571;SHT31;67861;51.966;5.672;2023-03-11T06:12:11;3.8;58.8
78571;SHT31;67861;51.966;5.672;2023-03-11T06:14:40;3.8;59.0
78571;SHT31;67861;51.966;5.672;2023-03-11T06:17:10;3.8;58.8
78571;SHT31;67861;51.966;5.672;2023-03-11T06:19:40;3.7;58.6
78571;SHT31;67861;51.966;5.672;2023-03-11T06:22:10;3.7;58.7
78571;SHT31;67861;51.966;5.672;2023-03-11T06:24:40;3.7;58.7
78571;SHT31;67861;51.966;5.672;2023-03-11T06:27:09;3.7;58.7
78571;SHT31;67861;51.966;5.672;2023-03-11T06:29:39;3.7;59.0
78571;SHT31;67861;51.966;5.672;2023-03-11T06:32:09;3.7;59.1
78571;SHT31;67861;51.966;5.672;2023-03-11T06:34:38;3.7;59.1
78571;SHT31;67861;51.966;5.672;2023-03-11T06:37:08;3.7;59.0
78571;SHT31;67861;51.966;5.672;2023-03-11T06:39:38;3.7;59.4
78571;SHT31;67861;51.966;5.672;2023-03-11T06:42:10;3.7;59.5
78571;SHT31;67861;51.966;5.672;2023-03-11T06:44:40;3.7;59.7
78571;SHT31;67861;51.966;5.672;2023-03-11T06:47:10;3.7;59.7
78571;SHT31;67861;51.966;5.672;2023-03-11T06:49:40;3.7;59.7
78571;SHT31;67861;51.966;5.672;2023-03-11T06:52:12;3.8;60.1
78571;SHT31;67861;51.966;5.672;2023-03-11T06:54:42;3.8;60.9
78571;SHT31;67861;51.966;5.672;2023-03-11T06:57:13;3.8;61.0
78571;SHT31;67861;51.966;5.672;2023-03-11T06:59:44;3.8;61.5
78571;SHT31;67861;51.966;5.672;2023-03-11T07:02:14;3.9;61.0
78571;SHT31;67861;51.966;5.672;2023-03-11T07:04:46;3.9;60.8
78571;SHT31;67861;51.966;5.672;2023-03-11T07:07:17;4.0;61.8
78571;SHT31;67861;51.966;5.672;2023-03-11T07:09:49;4.0;60.3
78571;SHT31;67861;51.966;5.672;2023-03-11T07:12:23;4.1;60.0
78571;SHT31;67861;51.966;5.672;2023-03-11T07:14:56;4.2;60.3
78571;SHT31;67861;51.966;5.672;2023-03-11T07:17:26;4.2;60.5
78571;SHT31;67861;51.966;5.672;2023-03-11T07:19:58;4.2;59.8
78571;SHT31;67861;51.966;5.672;2023-03-11T07:22:29;4.2;60.2
78571;SHT31;67861;51.966;5.672;2023-03-11T07:24:58;4.2;59.8
78571;SHT31;67861;51.966;5.672;2023-03-11T07:27:28;4.2;59.5
78571;SHT31;67861;51.966;5.672;2023-03-11T07:29:59;4.3;59.3
78571;SHT31;67861;51.966;5.672;2023-03-11T07:32:29;4.3;59.2
78571;SHT31;67861;51.966;5.672;2023-03-11T07:34:58;4.3;58.8
78571;SHT31;67861;51.966;5.672;2023-03-11T07:37:28;4.3;59.4
78571;SHT31;67861;51.966;5.672;2023-03-11T07:39:58;4.3;58.9
78571;SHT31;67861;51.966;5.672;2023-03-11T07:42:32;4.4;58.9
78571;SHT31;67861;51.966;5.672;2023-03-11T07:45:02;4.4;58.7
78571;SHT31;67861;51.966;5.672;2023-03-11T07:47:32;4.4;58.9
78571;SHT31;67861;51.966;5.672;2023-03-11T07:50:04;4.4;57.2
78571;SHT31;67861;51.966;5.672;2023-03-11T07:52:34;4.4;56.9
78571;SHT31;67861;51.966;5.672;2023-03-11T07:55:05;4.4;54.7
78571;SHT31;67861;51.966;5.672;2023-03-11T07:57:34;4.5;55.7
78571;SHT31;67861;51.966;5.672;2023-03-11T08:00:08;4.5;56.6
78571;SHT31;67861;51.966;5.672;2023-03-11T08:02:39;4.5;56.1
78571;SHT31;67861;51.966;5.672;2023-03-11T08:05:09;4.5;56.9
78571;SHT31;67861;51.966;5.672;2023-03-11T08:07:41;4.6;57.5
78571;SHT31;67861;51.966;5.672;2023-03-11T08:10:14;4.6;58.1
78571;SHT31;67861;51.966;5.672;2023-03-11T08:12:43;4.6;57.7
78571;SHT31;67861;51.966;5.672;2023-03-11T08:15:13;4.7;57.6
78571;SHT31;67861;51.966;5.672;2023-03-11T08:17:43;4.7;57.8
78571;SHT31;67861;51.966;5.672;2023-03-11T08:20:13;4.7;56.8
78571;SHT31;67861;51.966;5.672;2023-03-11T08:22:43;4.8;53.8
78571;SHT31;67861;51.966;5.672;2023-03-11T08:25:13;4.8;56.5
78571;SHT31;67861;51.966;5.672;2023-03-11T08:27:43;4.8;56.4
78571;SHT31;67861;51.966;5.672;2023-03-11T08:30:13;4.9;56.8
78571;SHT31;67861;51.966;5.672;2023-03-11T08:32:43;4.9;56.1
78571;SHT31;67861;51.966;5.672;2023-03-11T08:35:15;5.0;57.5
78571;SHT31;67861;51.966;5.672;2023-03-11T08:37:45;5.0;56.0
78571;SHT31;67861;51.966;5.672;2023-03-11T08:40:16;5.1;54.8
78571;SHT31;67861;51.966;5.672;2023-03-11T08:42:46;5.1;55.7
78571;SHT31;67861;51.966;5.672;2023-03-11T08:45:19;5.2;56.2
78571;SHT31;67861;51.966;5.672;2023-03-11T08:47:50;5.2;56.3
78571;SHT31;67861;51.966;5.672;2023-03-11T08:50:20;5.3;55.0
78571;SHT31;67861;51.966;5.672;2023-03-11T08:52:52;5.3;55.5
78571;SHT31;67861;51.966;5.672;2023-03-11T08:55:26;5.4;56.3
78571;SHT31;67861;51.966;5.672;2023-03-11T08:57:57;5.4;56.1
78571;SHT31;67861;51.966;5.672;2023-03-11T09:00:28;5.5;52.8
78571;SHT31;67861;51.966;5.672;2023-03-11T09:02:58;5.6;53.6
78571;SHT31;67861;51.966;5.672;2023-03-11T09:05:28;5.6;52.5
78571;SHT31;67861;51.966;5.672;2023-03-11T09:07:58;5.7;54.6
78571;SHT31;67861;51.966;5.672;2023-03-11T09:10:29;5.8;55.6
78571;SHT31;67861;51.966;5.672;2023-03-11T09:12:59;5.8;57.7
78571;SHT31;67861;51.966;5.672;2023-03-11T09:15:29;5.9;57.1
78571;SHT31;67861;51.966;5.672;2023-03-11T09:17:58;6.0;56.9
78571;SHT31;67861;51.966;5.672;2023-03-11T09:20:28;6.1;56.9
78571;SHT31;67861;51.966;5.672;2023-03-11T09:22:57;6.2;55.6
78571;SHT31;67861;51.966;5.672;2023-03-11T09:25:27;6.3;53.7
78571;SHT31;67861;51.966;5.672;2023-03-11T09:27:57;6.4;53.5
78571;SHT31;67861;51.966;5.672;2023-03-11T09:30:26;6.5;56.0
78571;SHT31;67861;51.966;5.672;2023-03-11T09:32:56;6.6;56.8
78571;SHT31;67861;51.966;5.672;2023-03-11T09:35:27;6.6;51.6
78571;SHT31;67861;51.966;5.672;2023-03-11T09:37:56;6.8;52.8
78571;SHT31;67861;51.966;5.672;2023-03-11T09:40:41;6.9;54.6
78571;SHT31;67861;51.966;5.672;2023-03-11T09:43:19;7.0;53.6
78571;SHT31;67861;51.966;5.672;2023-03-11T09:45:58;7.1;53.6
78571;SHT31;67861;51.966;5.672;2023-03-11T09:48:38;7.2;52.9
78571;SHT31;67861;51.966;5.672;2023-03-11T09:51:17;7.3;52.6
78571;SHT31;67861;51.966;5.672;2023-03-11T09:53:55;7.4;53.7
78571;SHT31;67861;51.966;5.672;2023-03-11T09:56:27;7.5;52.0
78571;SHT31;67861;51.966;5.672;2023-03-11T09:59:01;7.6;50.5
78571;SHT31;67861;51.966;5.672;2023-03-11T10:01:35;7.6;50.0
78571;SHT31;67861;51.966;5.672;2023-03-11T10:04:10;7.7;50.5
78571;SHT31;67861;51.966;5.672;2023-03-11T10:06:44;7.8;50.1
78571;SHT31;67861;51.966;5.672;2023-03-11T10:09:30;7.9;50.9
78571;SHT31;67861;51.966;5.672;2023-03-11T10:12:12;8.0;50.8
78571;SHT31;67861;51.966;5.672;2023-03-11T10:14:53;8.1;48.5
78571;SHT31;67861;51.966;5.672;2023-03-11T10:17:42;8.2;51.3
78571;SHT31;67861;51.966;5.672;2023-03-11T10:20:23;8.4;47.1
78571;SHT31;67861;51.966;5.672;2023-03-11T10:23:08;8.5;49.0
78571;SHT31;67861;51.966;5.672;2023-03-11T10:25:50;8.6;43.1
78571;SHT31;67861;51.966;5.672;2023-03-11T10:28:27;8.7;45.0
78571;SHT31;67861;51.966;5.672;2023-03-11T10:31:03;8.9;47.0
78571;SHT31;67861;51.966;5.672;2023-03-11T10:33:38;8.9;45.9
78571;SHT31;67861;51.966;5.672;2023-03-11T10:36:16;9.0;46.7
78571;SHT31;67861;51.966;5.672;2023-03-11T10:38:51;9.1;47.7
78571;SHT31;67861;51.966;5.672;2023-03-11T10:41:27;9.1;46.0
78571;SHT31;67861;51.966;5.672;2023-03-11T10:44:05;9.2;46.4
78571;SHT31;67861;51.966;5.672;2023-03-11T10:46:38;9.3;46.9
78571;SHT31;67861;51.966;5.672;2023-03-11T10:49:12;9.4;44.8
78571;SHT31;67861;51.966;5.672;2023-03-11T10:51:45;9.5;44.6
78571;SHT31;67861;51.966;5.672;2023-03-11T10:54:24;9.5;46.4
78571;SHT31;67861;51.966;5.672;2023-03-11T10:56:57;9.6;47.6
78571;SHT31;67861;51.966;5.672;2023-03-11T10:59:32;9.7;43.8
78571;SHT31;67861;51.966;5.672;2023-03-11T11:02:21;9.8;42.3
78571;SHT31;67861;51.966;5.672;2023-03-11T11:05:17;9.8;43.7
78571;SHT31;67861;51.966;5.672;2023-03-11T11:07:44;9.9;44.4
78571;SHT31;67861;51.966;5.672;2023-03-11T11:10:17;9.9;39.9
78571;SHT31;67861;51.966;5.672;2023-03-11T11:12:54;9.9;45.1
78571;SHT31;67861;51.966;5.672;2023-03-11T11:15:29;10.0;41.4
78571;SHT31;67861;51.966;5.672;2023-03-11T11:18:01;10.0;44.0
78571;SHT31;67861;51.966;5.672;2023-03-11T11:20:33;10.1;43.4
78571;SHT31;67861;51.966;5.672;2023-03-11T11:23:03;10.1;43.3
78571;SHT31;67861;51.966;5.672;2023-03-11T11:25:35;10.2;42.2
78571;SHT31;67861;51.966;5.672;2023-03-11T11:28:17;10.3;40.3
78571;SHT31;67861;51.966;5.672;2023-03-11T11:30:56;10.4;43.8
78571;SHT31;67861;51.966;5.672;2023-03-11T11:33:29;10.4;45.5
78571;SHT31;67861;51.966;5.672;2023-03-11T11:36:04;10.5;42.5
78571;SHT31;67861;51.966;5.672;2023-03-11T11:38:40;10.6;42.6
78571;SHT31;67861;51.966;5.672;2023-03-11T11:41:15;10.7;43.2
78571;SHT31;67861;51.966;5.672;2023-03-11T11:43:50;10.8;41.9
78571;SHT31;67861;51.966;5.672;2023-03-11T11:46:26;10.9;40.0
78571;SHT31;67861;51.966;5.672;2023-03-11T11:49:15;11.0;41.4
78571;SHT31;67861;51.966;5.672;2023-03-11T11:51:55;11.0;42.5
78571;SHT31;67861;51.966;5.672;2023-03-11T11:54:32;11.1;40.7
78571;SHT31;67861;51.966;5.672;2023-03-11T11:57:10;11.2;43.3
78571;SHT31;67861;51.966;5.672;2023-03-11T11:59:43;11.2;40.7
78571;SHT31;67861;51.966;5.672;2023-03-11T12:02:35;11.3;41.5
78571;SHT31;67861;51.966;5.672;2023-03-11T12:05:13;11.4;42.6
78571;SHT31;67861;51.966;5.672;2023-03-11T12:08:05;11.4;40.4
78571;SHT31;67861;51.966;5.672;2023-03-11T12:10:41;11.5;40.4
78571;SHT31;67861;51.966;5.672;2023-03-11T12:13:25;11.5;41.6
78571;SHT31;67861;51.966;5.672;2023-03-11T12:16:08;11.6;41.6
78571;SHT31;67861;51.966;5.672;2023-03-11T12:18:53;11.7;40.2
78571;SHT31;67861;51.966;5.672;2023-03-11T12:21:38;11.7;39.9
78571;SHT31;67861;51.966;5.672;2023-03-11T12:24:24;11.8;39.9
78571;SHT31;67861;51.966;5.672;2023-03-11T12:27:02;11.9;38.7
78571;SHT31;67861;51.966;5.672;2023-03-11T12:29:38;11.9;38.0
78571;SHT31;67861;51.966;5.672;2023-03-11T12:32:18;11.9;37.2
78571;SHT31;67861;51.966;5.672;2023-03-11T12:34:51;12.0;37.8
78571;SHT31;67861;51.966;5.672;2023-03-11T12:37:22;12.0;39.8
78571;SHT31;67861;51.966;5.672;2023-03-11T12:39:52;12.1;35.7
78571;SHT31;67861;51.966;5.672;2023-03-11T12:42:23;12.1;34.3
78571;SHT31;67861;51.966;5.672;2023-03-11T12:44:53;12.1;38.7
78571;SHT31;67861;51.966;5.672;2023-03-11T12:47:26;12.2;36.8
78571;SHT31;67861;51.966;5.672;2023-03-11T12:52:54;12.3;35.8
78571;SHT31;67861;51.966;5.672;2023-03-11T12:55:35;12.3;35.3
78571;SHT31;67861;51.966;5.672;2023-03-11T12:58:31;12.4;35.3
78571;SHT31;67861;51.966;5.672;2023-03-11T13:01:53;12.4;36.2
78571;SHT31;67861;51.966;5.672;2023-03-11T13:04:31;12.4;36.5
78571;SHT31;67861;51.966;5.672;2023-03-11T13:07:35;12.4;36.2
78571;SHT31;67861;51.966;5.672;2023-03-11T13:10:14;12.4;36.2
78571;SHT31;67861;51.966;5.672;2023-03-11T13:12:46;12.4;38.3
78571;SHT31;67861;51.966;5.672;2023-03-11T13:15:36;12.5;35.5
78571;SHT31;67861;51.966;5.672;2023-03-11T13:18:21;12.5;37.7
78571;SHT31;67861;51.966;5.672;2023-03-11T13:20:55;12.5;36.5
78571;SHT31;67861;51.966;5.672;2023-03-11T13:23:30;12.5;36.7
78571;SHT31;67861;51.966;5.672;2023-03-11T13:26:19;12.6;38.9
78571;SHT31;67861;51.966;5.672;2023-03-11T13:29:26;12.6;39.7
78571;SHT31;67861;51.966;5.672;2023-03-11T13:32:15;12.6;37.0
78571;SHT31;67861;51.966;5.672;2023-03-11T13:34:59;12.6;36.4
78571;SHT31;67861;51.966;5.672;2023-03-11T13:37:43;12.6;36.8
78571;SHT31;67861;51.966;5.672;2023-03-11T13:40:29;12.6;37.1
78571;SHT31;67861;51.966;5.672;2023-03-11T13:43:03;12.6;36.3
78571;SHT31;67861;51.966;5.672;2023-03-11T13:45:35;12.6;36.3
78571;SHT31;67861;51.966;5.672;2023-03-11T13:48:09;12.6;35.7
78571;SHT31;67861;51.966;5.672;2023-03-11T13:50:45;12.6;37.4
78571;SHT31;67861;51.966;5.672;2023-03-11T13:53:21;12.7;35.3
78571;SHT31;67861;51.966;5.672;2023-03-11T13:55:54;12.7;36.1
78571;SHT31;67861;51.966;5.672;2023-03-11T13:58:26;12.7;35.4
78571;SHT31;67861;51.966;5.672;2023-03-11T14:00:58;12.7;34.0
78571;SHT31;67861;51.966;5.672;2023-03-11T14:03:34;12.7;33.6
78571;SHT31;67861;51.966;5.672;2023-03-11T14:06:07;12.7;34.9
78571;SHT31;67861;51.966;5.672;2023-03-11T14:08:39;12.7;35.7
78571;SHT31;67861;51.966;5.672;2023-03-11T14:11:16;12.8;36.4
78571;SHT31;67861;51.966;5.672;2023-03-11T14:13:49;12.8;34.8
78571;SHT31;67861;51.966;5.672;2023-03-11T14:16:23;12.8;35.0
78571;SHT31;67861;51.966;5.672;2023-03-11T14:19:05;12.8;35.0
78571;SHT31;67861;51.966;5.672;2023-03-11T14:21:41;12.8;34.6
78571;SHT31;67861;51.966;5.672;2023-03-11T14:24:17;12.8;33.5
78571;SHT31;67861;51.966;5.672;2023-03-11T14:26:49;12.7;32.9
78571;SHT31;67861;51.966;5.672;2023-03-11T14:29:29;12.7;32.7
78571;SHT31;67861;51.966;5.672;2023-03-11T14:32:16;12.7;35.1
78571;SHT31;67861;51.966;5.672;2023-03-11T14:34:51;12.6;35.1
78571;SHT31;67861;51.966;5.672;2023-03-11T14:37:31;12.6;33.9
78571;SHT31;67861;51.966;5.672;2023-03-11T14:40:02;12.6;33.8
78571;SHT31;67861;51.966;5.672;2023-03-11T14:42:35;12.6;34.5
78571;SHT31;67861;51.966;5.672;2023-03-11T14:45:13;12.6;35.5
78571;SHT31;67861;51.966;5.672;2023-03-11T14:47:47;12.6;36.5
78571;SHT31;67861;51.966;5.672;2023-03-11T14:50:20;12.6;36.0
78571;SHT31;67861;51.966;5.672;2023-03-11T14:52:56;12.6;35.3
78571;SHT31;67861;51.966;5.672;2023-03-11T14:55:30;12.6;34.1
78571;SHT31;67861;51.966;5.672;2023-03-11T14:58:04;12.6;34.4
78571;SHT31;67861;51.966;5.672;2023-03-11T15:00:41;12.5;34.2
78571;SHT31;67861;51.966;5.672;2023-03-11T15:03:20;12.5;34.0
78571;SHT31;67861;51.966;5.672;2023-03-11T15:05:54;12.5;35.5
78571;SHT31;67861;51.966;5.672;2023-03-11T15:08:28;12.4;34.3
78571;SHT31;67861;51.966;5.672;2023-03-11T15:11:16;12.4;34.3
78571;SHT31;67861;51.966;5.672;2023-03-11T15:13:46;12.4;34.0
78571;SHT31;67861;51.966;5.672;2023-03-11T15:16:27;12.4;34.3
78571;SHT31;67861;51.966;5.672;2023-03-11T15:19:01;12.5;33.7
78571;SHT31;67861;51.966;5.672;2023-03-11T15:21:35;12.5;34.1
78571;SHT31;67861;51.966;5.672;2023-03-11T15:24:19;12.5;32.4
78571;SHT31;67861;51.966;5.672;2023-03-11T15:26:55;12.5;33.4
78571;SHT31;67861;51.966;5.672;2023-03-11T15:29:27;12.5;33.9
78571;SHT31;67861;51.966;5.672;2023-03-11T15:31:58;12.4;33.8
78571;SHT31;67861;51.966;5.672;2023-03-11T15:34:30;12.4;34.0
78571;SHT31;67861;51.966;5.672;2023-03-11T15:37:19;12.4;30.6
78571;SHT31;67861;51.966;5.672;2023-03-11T15:39:50;12.4;31.0
78571;SHT31;67861;51.966;5.672;2023-03-11T15:42:23;12.3;33.6
78571;SHT31;67861;51.966;5.672;2023-03-11T15:45:22;12.3;31.8
78571;SHT31;67861;51.966;5.672;2023-03-11T15:47:52;12.2;33.4
78571;SHT31;67861;51.966;5.672;2023-03-11T15:50:24;12.2;33.6
78571;SHT31;67861;51.966;5.672;2023-03-11T15:52:56;12.1;35.0
78571;SHT31;67861;51.966;5.672;2023-03-11T15:55:27;12.1;34.3
78571;SHT31;67861;51.966;5.672;2023-03-11T15:58:02;12.1;32.7
78571;SHT31;67861;51.966;5.672;2023-03-11T16:00:35;12.1;31.2
78571;SHT31;67861;51.966;5.672;2023-03-11T16:03:08;12.1;33.8
78571;SHT31;67861;51.966;5.672;2023-03-11T16:05:44;12.0;32.4
78571;SHT31;67861;51.966;5.672;2023-03-11T16:08:14;12.0;32.9
78571;SHT31;67861;51.966;5.672;2023-03-11T16:10:45;11.9;33.1
78571;SHT31;67861;51.966;5.672;2023-03-11T16:13:15;11.9;32.4
78571;SHT31;67861;51.966;5.672;2023-03-11T16:15:44;11.9;32.0
78571;SHT31;67861;51.966;5.672;2023-03-11T16:18:15;11.8;31.1
78571;SHT31;67861;51.966;5.672;2023-03-11T16:20:50;11.8;30.8
78571;SHT31;67861;51.966;5.672;2023-03-11T16:23:23;11.7;31.4
78571;SHT31;67861;51.966;5.672;2023-03-11T16:25:57;11.7;31.1
78571;SHT31;67861;51.966;5.672;2023-03-11T16:28:27;11.6;31.4
78571;SHT31;67861;51.966;5.672;2023-03-11T16:30:59;11.6;31.7
78571;SHT31;67861;51.966;5.672;2023-03-11T16:33:30;11.5;30.4
78571;SHT31;67861;51.966;5.672;2023-03-11T16:36:01;11.5;32.3
78571;SHT31;67861;51.966;5.672;2023-03-11T16:38:40;11.4;31.6
78571;SHT31;67861;51.966;5.672;2023-03-11T16:41:11;11.4;32.1
78571;SHT31;67861;51.966;5.672;2023-03-11T16:43:41;11.3;30.2
78571;SHT31;67861;51.966;5.672;2023-03-11T16:46:11;11.3;31.5
78571;SHT31;67861;51.966;5.672;2023-03-11T16:48:41;11.2;32.9
78571;SHT31;67861;51.966;5.672;2023-03-11T16:51:11;11.1;33.3
78571;SHT31;67861;51.966;5.672;2023-03-11T16:53:40;11.1;32.2
78571;SHT31;67861;51.966;5.672;2023-03-11T16:56:10;11.0;33.2
78571;SHT31;67861;51.966;5.672;2023-03-11T16:58:40;11.0;32.7